Lake Dynasty — 3FZB2 — position and weather

sailwx.info

Track history (hours):
 
Tides and Currents Weather Stations Pressure Air Temp Water Temp Dewpoint Dewpoint Depression Visibility Wind Speed Wind Dir Waves Ship Positions

Lake Dynasty

Last reported at 2015-Jul-23 11:21 UTC. Time now 2015-Aug-04 17:57 UTC.
Position S 34°10' W 058°14'.
Warning: this ship's position is 12 days out of date.

Length 182 m; draft 6.5 m.

Type: Cargo ship. MMSI: 370957000.

Date/timePositionNaut miles runAvg speedWind from/ knotsBaromVisibWave heightAir tempDewpointWater temp
2015-Jul-23 11:21S 34°10' W 058°14'810.5
2015-Jul-23 10:33S 34°14' W 058°05'1111.3
2015-Jul-23 09:33S 34°24' W 057°59'1111.3
2015-Jul-23 08:33S 34°35' W 057°56'9 9.2
2015-Jul-23 07:33S 34°43' W 057°51'7 7.2
2015-Jul-23 06:33S 34°44' W 057°43'1211.9
2015-Jul-23 05:33S 34°48' W 057°29'1212.4
2015-Jul-23 04:33S 34°55' W 057°17'1312.3
2015-Jul-23 03:31S 35°05' W 057°07'1211.7
2015-Jul-23 02:32S 35°10' W 056°54'1010.6
2015-Jul-23 01:33S 35°10' W 056°41'  
Track history (hours):
 
Tides and Currents Weather Stations Pressure Air Temp Water Temp Dewpoint Dewpoint Depression Visibility Wind Speed Wind Dir Waves Ship Positions

Lake Dynasty

Last reported at 2015-Jul-23 11:21 UTC. Time now 2015-Aug-04 17:57 UTC.
Position S 34°10' W 058°14'.
Warning: this ship's position is 12 days out of date.

Length 182 m; draft 6.5 m.

Type: Cargo ship. MMSI: 370957000.

Date/timePositionNaut miles runAvg speedWind from/ knotsBaromVisibWave heightAir tempDewpointWater temp
2015-Jul-23 11:21S 34°10' W 058°14'810.5
2015-Jul-23 10:33S 34°14' W 058°05'1111.3
2015-Jul-23 09:33S 34°24' W 057°59'1111.3
2015-Jul-23 08:33S 34°35' W 057°56'9 9.2
2015-Jul-23 07:33S 34°43' W 057°51'7 7.2
2015-Jul-23 06:33S 34°44' W 057°43'1211.9
2015-Jul-23 05:33S 34°48' W 057°29'1212.4
2015-Jul-23 04:33S 34°55' W 057°17'1312.3
2015-Jul-23 03:31S 35°05' W 057°07'1211.7
2015-Jul-23 02:32S 35°10' W 056°54'1010.6
2015-Jul-23 01:33S 35°10' W 056°41'  

Dump ship's entire track history